sensor_id;sensor_type;location;lat;lon;timestamp;pressure;altitude;pressure_sealevel;temperature;humidity
77019;BME280;66044;53.142;17.962;2023-09-19T00:00:20;100128.39;;;21.20;59.41
77019;BME280;66044;53.142;17.962;2023-09-19T00:03:07;100126.39;;;21.19;59.59
77019;BME280;66044;53.142;17.962;2023-09-19T00:05:37;100123.28;;;21.17;59.73
77019;BME280;66044;53.142;17.962;2023-09-19T00:08:05;100129.45;;;21.15;59.89
77019;BME280;66044;53.142;17.962;2023-09-19T00:10:33;100129.09;;;21.12;59.99
77019;BME280;66044;53.142;17.962;2023-09-19T00:13:02;100134.27;;;21.10;60.18
77019;BME280;66044;53.142;17.962;2023-09-19T00:15:39;100139.58;;;21.10;60.10
77019;BME280;66044;53.142;17.962;2023-09-19T00:18:06;100141.38;;;21.10;60.19
77019;BME280;66044;53.142;17.962;2023-09-19T00:20:35;100144.49;;;21.10;60.22
77019;BME280;66044;53.142;17.962;2023-09-19T00:23:02;100151.98;;;21.10;60.26
77019;BME280;66044;53.142;17.962;2023-09-19T00:25:30;100153.55;;;21.11;60.43
77019;BME280;66044;53.142;17.962;2023-09-19T00:27:58;100154.20;;;21.13;60.36
77019;BME280;66044;53.142;17.962;2023-09-19T00:30:25;100153.17;;;21.16;60.52
77019;BME280;66044;53.142;17.962;2023-09-19T00:32:51;100155.95;;;21.20;60.69
77019;BME280;66044;53.142;17.962;2023-09-19T00:35:19;100154.58;;;21.23;60.65
77019;BME280;66044;53.142;17.962;2023-09-19T00:37:48;100153.98;;;21.27;60.84
77019;BME280;66044;53.142;17.962;2023-09-19T00:40:15;100153.24;;;21.29;60.94
77019;BME280;66044;53.142;17.962;2023-09-19T00:42:43;100151.05;;;21.30;61.02
77019;BME280;66044;53.142;17.962;2023-09-19T00:45:12;100148.55;;;21.30;61.10
77019;BME280;66044;53.142;17.962;2023-09-19T00:47:41;100147.30;;;21.30;61.11
77019;BME280;66044;53.142;17.962;2023-09-19T00:50:09;100149.88;;;21.30;61.12
77019;BME280;66044;53.142;17.962;2023-09-19T00:52:37;100143.23;;;21.30;61.20
77019;BME280;66044;53.142;17.962;2023-09-19T00:55:08;100137.77;;;21.30;61.32
77019;BME280;66044;53.142;17.962;2023-09-19T00:57:37;100131.27;;;21.32;61.36
77019;BME280;66044;53.142;17.962;2023-09-19T01:00:06;100127.98;;;21.34;61.27
77019;BME280;66044;53.142;17.962;2023-09-19T01:02:35;100130.45;;;21.35;61.26
77019;BME280;66044;53.142;17.962;2023-09-19T01:05:01;100134.25;;;21.36;61.29
77019;BME280;66044;53.142;17.962;2023-09-19T01:07:31;100130.59;;;21.36;61.34
77019;BME280;66044;53.142;17.962;2023-09-19T01:10:02;100131.00;;;21.35;61.44
77019;BME280;66044;53.142;17.962;2023-09-19T01:12:57;100132.70;;;21.36;61.39
77019;BME280;66044;53.142;17.962;2023-09-19T01:24:22;100124.33;;;21.32;61.67
77019;BME280;66044;53.142;17.962;2023-09-19T01:29:47;100115.64;;;21.28;61.93
77019;BME280;66044;53.142;17.962;2023-09-19T01:32:21;100103.66;;;21.25;61.84
77019;BME280;66044;53.142;17.962;2023-09-19T01:34:50;100088.08;;;21.22;61.89
77019;BME280;66044;53.142;17.962;2023-09-19T01:37:21;100072.95;;;21.20;61.97
77019;BME280;66044;53.142;17.962;2023-09-19T01:39:54;100073.16;;;21.18;62.09
77019;BME280;66044;53.142;17.962;2023-09-19T01:42:33;100069.73;;;21.15;62.29
77019;BME280;66044;53.142;17.962;2023-09-19T01:45:11;100077.45;;;21.10;62.41
77019;BME280;66044;53.142;17.962;2023-09-19T01:47:46;100090.69;;;21.06;62.53
77019;BME280;66044;53.142;17.962;2023-09-19T01:50:34;100108.55;;;21.01;62.92
77019;BME280;66044;53.142;17.962;2023-09-19T01:53:15;100108.41;;;20.94;63.33
77019;BME280;66044;53.142;17.962;2023-09-19T01:55:47;100097.98;;;20.87;63.49
77019;BME280;66044;53.142;17.962;2023-09-19T01:58:21;100093.08;;;20.85;63.62
77019;BME280;66044;53.142;17.962;2023-09-19T02:00:52;100101.29;;;20.83;64.00
77019;BME280;66044;53.142;17.962;2023-09-19T02:03:21;100103.36;;;20.79;64.11
77019;BME280;66044;53.142;17.962;2023-09-19T02:05:52;100107.54;;;20.76;64.25
77019;BME280;66044;53.142;17.962;2023-09-19T02:08:21;100110.94;;;20.73;64.53
77019;BME280;66044;53.142;17.962;2023-09-19T02:10:50;100113.45;;;20.69;64.88
77019;BME280;66044;53.142;17.962;2023-09-19T02:13:17;100109.61;;;20.66;65.25
77019;BME280;66044;53.142;17.962;2023-09-19T02:15:45;100109.91;;;20.60;65.41
77019;BME280;66044;53.142;17.962;2023-09-19T02:18:13;100118.28;;;20.58;65.91
77019;BME280;66044;53.142;17.962;2023-09-19T02:20:40;100118.31;;;20.54;66.16
77019;BME280;66044;53.142;17.962;2023-09-19T02:23:08;100108.85;;;20.49;66.31
77019;BME280;66044;53.142;17.962;2023-09-19T02:25:34;100106.71;;;20.45;66.53
77019;BME280;66044;53.142;17.962;2023-09-19T02:28:06;100103.50;;;20.39;67.13
77019;BME280;66044;53.142;17.962;2023-09-19T02:30:35;100099.42;;;20.34;67.22
77019;BME280;66044;53.142;17.962;2023-09-19T02:33:03;100095.63;;;20.30;67.43
77019;BME280;66044;53.142;17.962;2023-09-19T02:35:30;100105.47;;;20.27;67.60
77019;BME280;66044;53.142;17.962;2023-09-19T02:38:01;100106.80;;;20.25;67.75
77019;BME280;66044;53.142;17.962;2023-09-19T02:40:33;100109.66;;;20.21;67.93
77019;BME280;66044;53.142;17.962;2023-09-19T02:43:02;100116.23;;;20.18;68.22
77019;BME280;66044;53.142;17.962;2023-09-19T02:45:31;100122.89;;;20.15;68.33
77019;BME280;66044;53.142;17.962;2023-09-19T02:47:58;100108.57;;;20.14;68.51
77019;BME280;66044;53.142;17.962;2023-09-19T02:50:24;100122.91;;;20.12;68.70
77019;BME280;66044;53.142;17.962;2023-09-19T02:52:51;100143.72;;;20.10;68.94
77019;BME280;66044;53.142;17.962;2023-09-19T02:55:18;100135.08;;;20.09;69.16
77019;BME280;66044;53.142;17.962;2023-09-19T02:57:47;100118.80;;;20.08;69.46
77019;BME280;66044;53.142;17.962;2023-09-19T03:00:14;100129.98;;;20.05;69.70
77019;BME280;66044;53.142;17.962;2023-09-19T03:02:41;100138.20;;;20.00;69.96
77019;BME280;66044;53.142;17.962;2023-09-19T03:05:08;100141.66;;;19.97;70.13
77019;BME280;66044;53.142;17.962;2023-09-19T03:07:37;100133.75;;;19.92;70.37
77019;BME280;66044;53.142;17.962;2023-09-19T03:10:06;100135.64;;;19.87;70.44
77019;BME280;66044;53.142;17.962;2023-09-19T03:12:33;100134.77;;;19.82;70.78
77019;BME280;66044;53.142;17.962;2023-09-19T03:15:01;100134.79;;;19.78;70.93
77019;BME280;66044;53.142;17.962;2023-09-19T03:17:29;100136.92;;;19.74;71.02
77019;BME280;66044;53.142;17.962;2023-09-19T03:19:56;100128.72;;;19.68;71.36
77019;BME280;66044;53.142;17.962;2023-09-19T03:22:23;100128.50;;;19.64;71.47
77019;BME280;66044;53.142;17.962;2023-09-19T03:24:51;100132.04;;;19.60;71.48
77019;BME280;66044;53.142;17.962;2023-09-19T03:27:18;100134.70;;;19.60;71.68
77019;BME280;66044;53.142;17.962;2023-09-19T03:29:45;100137.89;;;19.57;71.91
77019;BME280;66044;53.142;17.962;2023-09-19T03:32:11;100131.83;;;19.55;72.03
77019;BME280;66044;53.142;17.962;2023-09-19T03:34:38;100131.70;;;19.53;72.21
77019;BME280;66044;53.142;17.962;2023-09-19T03:37:09;100124.93;;;19.52;72.30
77019;BME280;66044;53.142;17.962;2023-09-19T03:39:36;100124.95;;;19.49;72.45
77019;BME280;66044;53.142;17.962;2023-09-19T03:42:03;100127.92;;;19.42;72.51
77019;BME280;66044;53.142;17.962;2023-09-19T03:44:30;100123.98;;;19.38;72.68
77019;BME280;66044;53.142;17.962;2023-09-19T03:46:56;100131.85;;;19.34;72.69
77019;BME280;66044;53.142;17.962;2023-09-19T03:49:24;100132.43;;;19.31;72.84
77019;BME280;66044;53.142;17.962;2023-09-19T03:51:50;100133.21;;;19.29;73.03
77019;BME280;66044;53.142;17.962;2023-09-19T03:54:17;100134.85;;;19.26;73.10
77019;BME280;66044;53.142;17.962;2023-09-19T03:56:45;100134.55;;;19.24;73.32
77019;BME280;66044;53.142;17.962;2023-09-19T03:59:12;100134.64;;;19.21;73.48
77019;BME280;66044;53.142;17.962;2023-09-19T04:01:38;100133.73;;;19.18;73.41
77019;BME280;66044;53.142;17.962;2023-09-19T04:04:05;100127.67;;;19.17;73.66
77019;BME280;66044;53.142;17.962;2023-09-19T04:06:35;100115.08;;;19.13;73.65
77019;BME280;66044;53.142;17.962;2023-09-19T04:09:03;100106.30;;;19.10;73.84
77019;BME280;66044;53.142;17.962;2023-09-19T04:11:30;100108.66;;;19.08;73.93
77019;BME280;66044;53.142;17.962;2023-09-19T04:13:57;100095.98;;;19.03;74.14
77019;BME280;66044;53.142;17.962;2023-09-19T04:16:23;100092.44;;;19.01;74.30
77019;BME280;66044;53.142;17.962;2023-09-19T04:18:50;100096.48;;;18.97;74.37
77019;BME280;66044;53.142;17.962;2023-09-19T04:21:17;100103.20;;;18.93;74.47
77019;BME280;66044;53.142;17.962;2023-09-19T04:23:43;100105.02;;;18.86;74.62
77019;BME280;66044;53.142;17.962;2023-09-19T04:26:10;100098.20;;;18.82;74.95
77019;BME280;66044;53.142;17.962;2023-09-19T04:28:36;100100.31;;;18.77;75.08
77019;BME280;66044;53.142;17.962;2023-09-19T04:31:04;100107.47;;;18.74;75.15
77019;BME280;66044;53.142;17.962;2023-09-19T04:33:31;100105.48;;;18.72;75.25
77019;BME280;66044;53.142;17.962;2023-09-19T04:36:02;100115.49;;;18.71;75.32
77019;BME280;66044;53.142;17.962;2023-09-19T04:38:29;100121.64;;;18.71;75.40
77019;BME280;66044;53.142;17.962;2023-09-19T04:40:57;100121.88;;;18.71;75.48
77019;BME280;66044;53.142;17.962;2023-09-19T04:43:26;100126.83;;;18.74;75.43
77019;BME280;66044;53.142;17.962;2023-09-19T04:45:53;100124.34;;;18.75;75.48
77019;BME280;66044;53.142;17.962;2023-09-19T04:48:22;100118.28;;;18.72;75.53
77019;BME280;66044;53.142;17.962;2023-09-19T04:50:52;100120.45;;;18.73;75.49
77019;BME280;66044;53.142;17.962;2023-09-19T04:53:18;100124.18;;;18.76;75.47
77019;BME280;66044;53.142;17.962;2023-09-19T04:55:53;100128.85;;;18.77;75.52
77019;BME280;66044;53.142;17.962;2023-09-19T04:58:22;100120.11;;;18.80;75.43
77019;BME280;66044;53.142;17.962;2023-09-19T05:00:49;100117.55;;;18.84;75.51
77019;BME280;66044;53.142;17.962;2023-09-19T05:03:17;100117.21;;;18.88;75.40
77019;BME280;66044;53.142;17.962;2023-09-19T05:05:44;100119.31;;;18.87;75.33
77019;BME280;66044;53.142;17.962;2023-09-19T05:08:10;100120.09;;;18.87;75.42
77019;BME280;66044;53.142;17.962;2023-09-19T05:10:37;100118.22;;;18.89;75.43
77019;BME280;66044;53.142;17.962;2023-09-19T05:13:04;100110.75;;;18.89;75.35
77019;BME280;66044;53.142;17.962;2023-09-19T05:15:31;100113.08;;;18.92;75.45
77019;BME280;66044;53.142;17.962;2023-09-19T05:17:57;100121.76;;;18.99;75.32
77019;BME280;66044;53.142;17.962;2023-09-19T05:20:24;100125.32;;;19.02;75.29
77019;BME280;66044;53.142;17.962;2023-09-19T05:23:02;100123.91;;;19.05;75.27
77019;BME280;66044;53.142;17.962;2023-09-19T05:25:31;100119.94;;;19.08;75.23
77019;BME280;66044;53.142;17.962;2023-09-19T05:27:58;100122.94;;;19.13;74.97
77019;BME280;66044;53.142;17.962;2023-09-19T05:30:26;100127.51;;;19.17;74.98
77019;BME280;66044;53.142;17.962;2023-09-19T05:32:55;100132.16;;;19.18;74.86
77019;BME280;66044;53.142;17.962;2023-09-19T05:35:23;100143.05;;;19.20;74.91
77019;BME280;66044;53.142;17.962;2023-09-19T05:37:53;100143.44;;;19.21;74.79
77019;BME280;66044;53.142;17.962;2023-09-19T05:40:21;100143.36;;;19.21;74.85
77019;BME280;66044;53.142;17.962;2023-09-19T05:42:47;100142.98;;;19.20;74.77
77019;BME280;66044;53.142;17.962;2023-09-19T05:45:14;100145.86;;;19.19;74.61
77019;BME280;66044;53.142;17.962;2023-09-19T05:47:40;100145.23;;;19.20;74.68
77019;BME280;66044;53.142;17.962;2023-09-19T05:50:11;100141.19;;;19.20;74.43
77019;BME280;66044;53.142;17.962;2023-09-19T05:52:38;100138.69;;;19.22;74.37
77019;BME280;66044;53.142;17.962;2023-09-19T05:55:05;100136.48;;;19.26;74.31
77019;BME280;66044;53.142;17.962;2023-09-19T05:57:34;100134.22;;;19.29;74.19
77019;BME280;66044;53.142;17.962;2023-09-19T06:00:01;100139.67;;;19.31;74.07
77019;BME280;66044;53.142;17.962;2023-09-19T06:02:36;100152.32;;;19.33;73.84
77019;BME280;66044;53.142;17.962;2023-09-19T06:05:05;100153.02;;;19.34;73.73
77019;BME280;66044;53.142;17.962;2023-09-19T06:07:37;100157.06;;;19.33;73.70
77019;BME280;66044;53.142;17.962;2023-09-19T06:10:04;100155.51;;;19.34;73.70
77019;BME280;66044;53.142;17.962;2023-09-19T06:12:38;100159.02;;;19.33;73.40
77019;BME280;66044;53.142;17.962;2023-09-19T06:15:05;100159.40;;;19.35;73.49
77019;BME280;66044;53.142;17.962;2023-09-19T06:17:32;100162.52;;;19.36;73.35
77019;BME280;66044;53.142;17.962;2023-09-19T06:19:59;100166.95;;;19.34;73.23
77019;BME280;66044;53.142;17.962;2023-09-19T06:22:25;100168.35;;;19.32;73.06
77019;BME280;66044;53.142;17.962;2023-09-19T06:24:52;100169.48;;;19.32;73.19
77019;BME280;66044;53.142;17.962;2023-09-19T06:27:19;100169.23;;;19.30;73.15
77019;BME280;66044;53.142;17.962;2023-09-19T06:29:45;100170.80;;;19.29;73.17
77019;BME280;66044;53.142;17.962;2023-09-19T06:32:12;100175.23;;;19.28;73.25
77019;BME280;66044;53.142;17.962;2023-09-19T06:34:38;100178.81;;;19.27;73.20
77019;BME280;66044;53.142;17.962;2023-09-19T06:37:05;100179.12;;;19.29;73.28
77019;BME280;66044;53.142;17.962;2023-09-19T06:39:37;100181.84;;;19.30;73.13
77019;BME280;66044;53.142;17.962;2023-09-19T06:42:04;100187.58;;;19.32;73.13
77019;BME280;66044;53.142;17.962;2023-09-19T06:44:30;100191.38;;;19.36;73.20
77019;BME280;66044;53.142;17.962;2023-09-19T06:46:58;100187.33;;;19.37;73.14
77019;BME280;66044;53.142;17.962;2023-09-19T06:49:24;100194.10;;;19.35;73.09
77019;BME280;66044;53.142;17.962;2023-09-19T06:51:54;100195.59;;;19.33;73.22
77019;BME280;66044;53.142;17.962;2023-09-19T06:54:21;100196.20;;;19.33;73.23
77019;BME280;66044;53.142;17.962;2023-09-19T06:56:47;100197.54;;;19.33;73.17
77019;BME280;66044;53.142;17.962;2023-09-19T06:59:14;100200.09;;;19.35;73.17
77019;BME280;66044;53.142;17.962;2023-09-19T07:01:42;100204.38;;;19.38;73.06
77019;BME280;66044;53.142;17.962;2023-09-19T07:04:10;100204.35;;;19.41;73.00
77019;BME280;66044;53.142;17.962;2023-09-19T07:06:37;100201.14;;;19.42;72.93
77019;BME280;66044;53.142;17.962;2023-09-19T07:09:04;100203.56;;;19.43;72.89
77019;BME280;66044;53.142;17.962;2023-09-19T07:11:30;100203.88;;;19.46;72.95
77019;BME280;66044;53.142;17.962;2023-09-19T07:13:59;100204.48;;;19.53;72.70
77019;BME280;66044;53.142;17.962;2023-09-19T07:16:28;100209.96;;;19.62;72.58
77019;BME280;66044;53.142;17.962;2023-09-19T07:18:58;100214.02;;;19.73;72.58
77019;BME280;66044;53.142;17.962;2023-09-19T07:21:25;100213.33;;;19.84;72.34
77019;BME280;66044;53.142;17.962;2023-09-19T07:23:51;100210.03;;;19.88;72.04
77019;BME280;66044;53.142;17.962;2023-09-19T07:26:18;100212.68;;;19.88;72.01
77019;BME280;66044;53.142;17.962;2023-09-19T07:28:44;100218.38;;;19.87;71.82
77019;BME280;66044;53.142;17.962;2023-09-19T07:31:11;100219.53;;;19.89;71.78
77019;BME280;66044;53.142;17.962;2023-09-19T07:33:39;100221.30;;;19.93;71.60
77019;BME280;66044;53.142;17.962;2023-09-19T07:36:09;100223.67;;;19.99;71.29
77019;BME280;66044;53.142;17.962;2023-09-19T07:38:37;100229.77;;;20.07;71.28
77019;BME280;66044;53.142;17.962;2023-09-19T07:41:03;100233.75;;;20.17;71.25
77019;BME280;66044;53.142;17.962;2023-09-19T07:43:31;100235.16;;;20.25;70.96
77019;BME280;66044;53.142;17.962;2023-09-19T07:46:03;100239.37;;;20.28;70.80
77019;BME280;66044;53.142;17.962;2023-09-19T07:48:29;100241.23;;;20.26;70.60
77019;BME280;66044;53.142;17.962;2023-09-19T07:50:55;100249.51;;;20.25;70.63
77019;BME280;66044;53.142;17.962;2023-09-19T07:53:22;100251.88;;;20.21;70.53
77019;BME280;66044;53.142;17.962;2023-09-19T07:55:49;100254.64;;;20.16;70.43
77019;BME280;66044;53.142;17.962;2023-09-19T07:58:15;100256.94;;;20.11;70.43
77019;BME280;66044;53.142;17.962;2023-09-19T08:00:42;100257.17;;;20.11;70.49
77019;BME280;66044;53.142;17.962;2023-09-19T08:03:08;100258.65;;;20.12;70.50
77019;BME280;66044;53.142;17.962;2023-09-19T08:05:35;100254.64;;;20.15;70.35
77019;BME280;66044;53.142;17.962;2023-09-19T08:08:03;100257.34;;;20.20;70.25
77019;BME280;66044;53.142;17.962;2023-09-19T08:10:29;100254.01;;;20.28;70.12
77019;BME280;66044;53.142;17.962;2023-09-19T08:13:01;100250.80;;;20.34;69.99
77019;BME280;66044;53.142;17.962;2023-09-19T08:15:28;100259.46;;;20.42;69.87
77019;BME280;66044;53.142;17.962;2023-09-19T08:17:55;100262.12;;;20.78;69.58
77019;BME280;66044;53.142;17.962;2023-09-19T08:20:21;100261.83;;;20.91;69.21
77019;BME280;66044;53.142;17.962;2023-09-19T08:22:52;100264.20;;;20.88;68.97
77019;BME280;66044;53.142;17.962;2023-09-19T08:25:21;100259.49;;;20.83;68.76
77019;BME280;66044;53.142;17.962;2023-09-19T08:27:48;100260.94;;;20.78;68.67
77019;BME280;66044;53.142;17.962;2023-09-19T08:30:17;100261.80;;;20.77;68.79
77019;BME280;66044;53.142;17.962;2023-09-19T08:32:44;100267.89;;;20.77;68.65
77019;BME280;66044;53.142;17.962;2023-09-19T08:35:12;100276.61;;;20.78;68.72
77019;BME280;66044;53.142;17.962;2023-09-19T08:37:38;100280.62;;;20.84;68.73
77019;BME280;66044;53.142;17.962;2023-09-19T08:40:06;100281.98;;;20.95;68.55
77019;BME280;66044;53.142;17.962;2023-09-19T08:43:07;100290.92;;;21.08;68.37
77019;BME280;66044;53.142;17.962;2023-09-19T08:45:34;100297.64;;;21.17;68.17
77019;BME280;66044;53.142;17.962;2023-09-19T08:48:22;100299.50;;;21.33;67.87
77019;BME280;66044;53.142;17.962;2023-09-19T08:51:03;100295.60;;;21.59;67.27
77019;BME280;66044;53.142;17.962;2023-09-19T08:53:46;100301.13;;;21.92;66.66
77019;BME280;66044;53.142;17.962;2023-09-19T08:56:17;100303.13;;;22.18;65.88
77019;BME280;66044;53.142;17.962;2023-09-19T08:59:10;100308.46;;;22.32;65.26
77019;BME280;66044;53.142;17.962;2023-09-19T09:01:37;100314.82;;;22.36;64.94
77019;BME280;66044;53.142;17.962;2023-09-19T09:04:08;100311.02;;;22.44;64.41
77019;BME280;66044;53.142;17.962;2023-09-19T09:06:35;100312.22;;;22.67;63.54
77019;BME280;66044;53.142;17.962;2023-09-19T09:09:03;100309.27;;;22.81;63.10
77019;BME280;66044;53.142;17.962;2023-09-19T09:11:33;100307.58;;;22.93;62.55
77019;BME280;66044;53.142;17.962;2023-09-19T09:14:00;100306.73;;;23.00;61.95
77019;BME280;66044;53.142;17.962;2023-09-19T09:16:26;100306.32;;;23.19;61.41
77019;BME280;66044;53.142;17.962;2023-09-19T09:18:55;100312.92;;;23.47;60.85
77019;BME280;66044;53.142;17.962;2023-09-19T09:21:25;100307.78;;;23.58;60.10
77019;BME280;66044;53.142;17.962;2023-09-19T09:23:52;100309.56;;;23.55;59.97
77019;BME280;66044;53.142;17.962;2023-09-19T09:26:42;100308.63;;;23.54;59.65
77019;BME280;66044;53.142;17.962;2023-09-19T09:29:09;100311.73;;;23.65;59.02
77019;BME280;66044;53.142;17.962;2023-09-19T09:31:35;100314.08;;;23.76;58.58
77019;BME280;66044;53.142;17.962;2023-09-19T09:34:03;100316.25;;;23.87;58.54
77019;BME280;66044;53.142;17.962;2023-09-19T09:36:39;100319.12;;;23.97;58.29
77019;BME280;66044;53.142;17.962;2023-09-19T09:39:10;100324.25;;;24.06;58.09
77019;BME280;66044;53.142;17.962;2023-09-19T09:41:44;100330.64;;;24.14;57.74
77019;BME280;66044;53.142;17.962;2023-09-19T09:44:13;100322.41;;;24.18;57.45
77019;BME280;66044;53.142;17.962;2023-09-19T09:46:43;100329.05;;;24.23;57.22
77019;BME280;66044;53.142;17.962;2023-09-19T09:49:23;100333.02;;;24.35;56.91
77019;BME280;66044;53.142;17.962;2023-09-19T09:52:02;100338.96;;;24.43;56.23
77019;BME280;66044;53.142;17.962;2023-09-19T09:54:34;100337.66;;;24.42;55.57
77019;BME280;66044;53.142;17.962;2023-09-19T09:57:09;100328.79;;;24.38;55.43
77019;BME280;66044;53.142;17.962;2023-09-19T09:59:58;100330.41;;;24.46;55.58
77019;BME280;66044;53.142;17.962;2023-09-19T10:02:29;100332.84;;;24.53;55.03
77019;BME280;66044;53.142;17.962;2023-09-19T10:05:16;100345.95;;;24.63;54.76
77019;BME280;66044;53.142;17.962;2023-09-19T10:07:55;100352.05;;;24.64;54.23
77019;BME280;66044;53.142;17.962;2023-09-19T10:10:36;100350.64;;;24.60;54.05
77019;BME280;66044;53.142;17.962;2023-09-19T10:13:10;100347.42;;;24.53;54.14
77019;BME280;66044;53.142;17.962;2023-09-19T10:15:43;100356.67;;;24.41;54.10
77019;BME280;66044;53.142;17.962;2023-09-19T10:18:24;100362.46;;;24.27;54.11
77019;BME280;66044;53.142;17.962;2023-09-19T10:20:52;100359.86;;;24.16;54.30
77019;BME280;66044;53.142;17.962;2023-09-19T10:23:21;100362.87;;;24.07;53.94
77019;BME280;66044;53.142;17.962;2023-09-19T10:25:52;100361.96;;;23.99;53.73
77019;BME280;66044;53.142;17.962;2023-09-19T10:28:20;100368.75;;;23.97;53.62
77019;BME280;66044;53.142;17.962;2023-09-19T10:30:52;100372.44;;;24.00;53.45
77019;BME280;66044;53.142;17.962;2023-09-19T10:33:21;100374.59;;;24.02;53.31
77019;BME280;66044;53.142;17.962;2023-09-19T10:35:50;100378.75;;;24.02;53.30
77019;BME280;66044;53.142;17.962;2023-09-19T10:38:26;100379.61;;;24.02;52.74
77019;BME280;66044;53.142;17.962;2023-09-19T10:40:56;100385.98;;;24.01;52.77
77019;BME280;66044;53.142;17.962;2023-09-19T10:43:31;100381.10;;;23.98;52.56
77019;BME280;66044;53.142;17.962;2023-09-19T10:46:06;100377.50;;;23.94;52.57
77019;BME280;66044;53.142;17.962;2023-09-19T10:48:33;100380.29;;;23.96;52.43
77019;BME280;66044;53.142;17.962;2023-09-19T10:51:12;100381.10;;;24.02;52.52
77019;BME280;66044;53.142;17.962;2023-09-19T10:53:54;100379.31;;;24.08;52.28
77019;BME280;66044;53.142;17.962;2023-09-19T10:56:26;100373.62;;;24.07;51.73
77019;BME280;66044;53.142;17.962;2023-09-19T11:01:45;100360.05;;;24.00;51.58
77019;BME280;66044;53.142;17.962;2023-09-19T11:04:28;100359.09;;;24.05;51.64
77019;BME280;66044;53.142;17.962;2023-09-19T11:07:11;100362.30;;;24.05;51.70
77019;BME280;66044;53.142;17.962;2023-09-19T11:09:44;100364.85;;;24.07;51.01
77019;BME280;66044;53.142;17.962;2023-09-19T11:15:08;100360.77;;;24.11;50.33
77019;BME280;66044;53.142;17.962;2023-09-19T11:17:43;100358.98;;;24.09;49.93
77019;BME280;66044;53.142;17.962;2023-09-19T11:25:45;100372.98;;;24.19;49.44
77019;BME280;66044;53.142;17.962;2023-09-19T11:30:46;100371.77;;;24.09;48.33
77019;BME280;66044;53.142;17.962;2023-09-19T11:33:24;100369.16;;;24.03;48.08
77019;BME280;66044;53.142;17.962;2023-09-19T11:36:08;100370.54;;;23.98;48.17
77019;BME280;66044;53.142;17.962;2023-09-19T11:46:27;100386.83;;;23.94;47.76
77019;BME280;66044;53.142;17.962;2023-09-19T11:48:54;100392.23;;;23.99;47.17
77019;BME280;66044;53.142;17.962;2023-09-19T11:51:24;100392.63;;;24.02;46.86
77019;BME280;66044;53.142;17.962;2023-09-19T11:53:57;100397.07;;;24.03;46.73
77019;BME280;66044;53.142;17.962;2023-09-19T11:56:27;100392.09;;;24.05;46.47
77019;BME280;66044;53.142;17.962;2023-09-19T11:58:56;100395.41;;;24.15;46.33
77019;BME280;66044;53.142;17.962;2023-09-19T12:01:26;100399.73;;;24.26;45.92
77019;BME280;66044;53.142;17.962;2023-09-19T12:03:57;100407.95;;;24.35;45.44
77019;BME280;66044;53.142;17.962;2023-09-19T12:06:25;100420.17;;;24.44;45.23
77019;BME280;66044;53.142;17.962;2023-09-19T12:08:53;100418.39;;;24.52;45.20
77019;BME280;66044;53.142;17.962;2023-09-19T12:11:29;100430.44;;;24.61;45.02
77019;BME280;66044;53.142;17.962;2023-09-19T12:13:59;100428.88;;;24.64;44.70
77019;BME280;66044;53.142;17.962;2023-09-19T12:16:30;100424.27;;;24.63;44.54
77019;BME280;66044;53.142;17.962;2023-09-19T12:18:57;100427.15;;;24.60;44.56
77019;BME280;66044;53.142;17.962;2023-09-19T12:21:28;100424.61;;;24.61;44.61
77019;BME280;66044;53.142;17.962;2023-09-19T12:24:13;100425.10;;;24.61;44.59
77019;BME280;66044;53.142;17.962;2023-09-19T12:26:40;100434.73;;;24.62;44.14
77019;BME280;66044;53.142;17.962;2023-09-19T12:29:17;100430.39;;;24.53;44.14
77019;BME280;66044;53.142;17.962;2023-09-19T12:34:21;100431.70;;;24.32;44.62
77019;BME280;66044;53.142;17.962;2023-09-19T12:36:48;100441.66;;;24.25;44.58
77019;BME280;66044;53.142;17.962;2023-09-19T12:39:24;100437.81;;;24.17;44.80
77019;BME280;66044;53.142;17.962;2023-09-19T12:41:52;100443.08;;;24.08;45.09
77019;BME280;66044;53.142;17.962;2023-09-19T12:44:20;100448.20;;;24.07;45.43
77019;BME280;66044;53.142;17.962;2023-09-19T12:46:46;100443.59;;;24.02;45.31
77019;BME280;66044;53.142;17.962;2023-09-19T12:49:20;100447.41;;;24.03;45.18
77019;BME280;66044;53.142;17.962;2023-09-19T12:51:46;100450.31;;;23.99;44.79
77019;BME280;66044;53.142;17.962;2023-09-19T12:54:14;100448.77;;;23.95;44.64
77019;BME280;66044;53.142;17.962;2023-09-19T12:56:45;100449.91;;;23.96;44.81
77019;BME280;66044;53.142;17.962;2023-09-19T12:59:14;100447.02;;;24.00;44.48
77019;BME280;66044;53.142;17.962;2023-09-19T13:01:42;100451.30;;;24.01;43.90
77019;BME280;66044;53.142;17.962;2023-09-19T13:04:21;100455.85;;;24.01;43.75
77019;BME280;66044;53.142;17.962;2023-09-19T13:06:56;100457.11;;;24.01;43.33
77019;BME280;66044;53.142;17.962;2023-09-19T13:09:27;100456.95;;;23.97;42.91
77019;BME280;66044;53.142;17.962;2023-09-19T13:12:37;100450.27;;;23.86;43.00
77019;BME280;66044;53.142;17.962;2023-09-19T13:15:09;100449.27;;;23.81;42.60
77019;BME280;66044;53.142;17.962;2023-09-19T13:17:43;100448.98;;;23.79;42.71
77019;BME280;66044;53.142;17.962;2023-09-19T13:20:22;100452.48;;;23.80;42.55
77019;BME280;66044;53.142;17.962;2023-09-19T13:22:54;100453.50;;;23.80;42.30
77019;BME280;66044;53.142;17.962;2023-09-19T13:25:26;100451.33;;;23.79;42.38
77019;BME280;66044;53.142;17.962;2023-09-19T13:27:57;100448.84;;;23.78;42.36
77019;BME280;66044;53.142;17.962;2023-09-19T13:30:27;100451.79;;;23.80;42.52